sensor_id;sensor_type;location;lat;lon;timestamp;P1;durP1;ratioP1;P2;durP2;ratioP2
10473;SDS011;5284;50.446;7.904;2023-02-15T00:01:05;373.92;;;33.42;;
10473;SDS011;5284;50.446;7.904;2023-02-15T00:06:10;321.33;;;40.13;;
10473;SDS011;5284;50.446;7.904;2023-02-15T00:11:13;402.08;;;33.63;;
10473;SDS011;5284;50.446;7.904;2023-02-15T00:16:17;447.55;;;36.92;;
10473;SDS011;5284;50.446;7.904;2023-02-15T00:21:21;451.55;;;34.75;;
10473;SDS011;5284;50.446;7.904;2023-02-15T00:26:24;512.42;;;35.83;;
10473;SDS011;5284;50.446;7.904;2023-02-15T00:31:28;538.72;;;40.80;;
10473;SDS011;5284;50.446;7.904;2023-02-15T00:36:34;364.15;;;30.88;;
10473;SDS011;5284;50.446;7.904;2023-02-15T00:41:37;532.10;;;38.90;;
10473;SDS011;5284;50.446;7.904;2023-02-15T00:46:40;497.85;;;39.20;;
10473;SDS011;5284;50.446;7.904;2023-02-15T00:51:44;487.33;;;36.10;;
10473;SDS011;5284;50.446;7.904;2023-02-15T00:56:47;450.75;;;38.95;;
10473;SDS011;5284;50.446;7.904;2023-02-15T01:01:50;339.52;;;31.77;;
10473;SDS011;5284;50.446;7.904;2023-02-15T01:08:07;451.40;;;28.03;;
10473;SDS011;5284;50.446;7.904;2023-02-15T01:14:22;692.53;;;42.03;;
10473;SDS011;5284;50.446;7.904;2023-02-15T01:20:39;505.77;;;38.60;;
10473;SDS011;5284;50.446;7.904;2023-02-15T01:25:44;484.02;;;35.50;;
10473;SDS011;5284;50.446;7.904;2023-02-15T01:30:47;308.77;;;30.15;;
10473;SDS011;5284;50.446;7.904;2023-02-15T01:35:55;444.35;;;35.10;;
10473;SDS011;5284;50.446;7.904;2023-02-15T01:41:00;306.67;;;25.63;;
10473;SDS011;5284;50.446;7.904;2023-02-15T01:46:18;464.48;;;31.88;;
10473;SDS011;5284;50.446;7.904;2023-02-15T01:51:23;405.67;;;32.00;;
10473;SDS011;5284;50.446;7.904;2023-02-15T01:56:33;364.15;;;29.25;;
10473;SDS011;5284;50.446;7.904;2023-02-15T02:01:38;357.40;;;32.00;;
10473;SDS011;5284;50.446;7.904;2023-02-15T02:06:41;318.25;;;28.15;;
10473;SDS011;5284;50.446;7.904;2023-02-15T02:11:46;187.45;;;25.73;;
10473;SDS011;5284;50.446;7.904;2023-02-15T02:16:52;241.95;;;25.63;;
10473;SDS011;5284;50.446;7.904;2023-02-15T02:22:08;187.60;;;22.45;;
10473;SDS011;5284;50.446;7.904;2023-02-15T02:27:35;225.32;;;23.48;;
10473;SDS011;5284;50.446;7.904;2023-02-15T02:32:53;176.15;;;19.50;;
10473;SDS011;5284;50.446;7.904;2023-02-15T02:38:11;293.08;;;25.17;;
10473;SDS011;5284;50.446;7.904;2023-02-15T02:43:21;233.82;;;23.20;;
10473;SDS011;5284;50.446;7.904;2023-02-15T02:48:32;159.77;;;19.23;;
10473;SDS011;5284;50.446;7.904;2023-02-15T02:53:35;256.40;;;23.67;;
10473;SDS011;5284;50.446;7.904;2023-02-15T02:58:39;318.70;;;24.70;;
10473;SDS011;5284;50.446;7.904;2023-02-15T03:03:49;255.60;;;22.48;;
10473;SDS011;5284;50.446;7.904;2023-02-15T03:08:56;215.00;;;25.73;;
10473;SDS011;5284;50.446;7.904;2023-02-15T03:14:03;326.15;;;22.60;;
10473;SDS011;5284;50.446;7.904;2023-02-15T03:19:08;228.52;;;28.40;;
10473;SDS011;5284;50.446;7.904;2023-02-15T03:24:12;302.88;;;26.88;;
10473;SDS011;5284;50.446;7.904;2023-02-15T03:29:21;394.77;;;25.40;;
10473;SDS011;5284;50.446;7.904;2023-02-15T03:34:28;296.30;;;24.67;;
10473;SDS011;5284;50.446;7.904;2023-02-15T03:39:32;329.85;;;23.45;;
10473;SDS011;5284;50.446;7.904;2023-02-15T03:44:41;385.50;;;26.73;;
10473;SDS011;5284;50.446;7.904;2023-02-15T03:49:52;521.85;;;28.05;;
10473;SDS011;5284;50.446;7.904;2023-02-15T03:54:57;219.00;;;21.83;;
10473;SDS011;5284;50.446;7.904;2023-02-15T04:00:02;321.08;;;27.27;;
10473;SDS011;5284;50.446;7.904;2023-02-15T04:05:27;366.75;;;24.17;;
10473;SDS011;5284;50.446;7.904;2023-02-15T04:10:30;491.83;;;28.20;;
10473;SDS011;5284;50.446;7.904;2023-02-15T04:15:51;463.52;;;24.05;;
10473;SDS011;5284;50.446;7.904;2023-02-15T04:21:09;422.50;;;26.80;;
10473;SDS011;5284;50.446;7.904;2023-02-15T04:26:29;320.45;;;21.77;;
10473;SDS011;5284;50.446;7.904;2023-02-15T04:31:32;337.25;;;24.98;;
10473;SDS011;5284;50.446;7.904;2023-02-15T04:36:36;433.58;;;27.77;;
10473;SDS011;5284;50.446;7.904;2023-02-15T04:41:39;489.52;;;25.95;;
10473;SDS011;5284;50.446;7.904;2023-02-15T04:46:42;284.55;;;20.92;;
10473;SDS011;5284;50.446;7.904;2023-02-15T04:51:46;333.90;;;26.27;;
10473;SDS011;5284;50.446;7.904;2023-02-15T04:56:49;402.00;;;24.73;;
10473;SDS011;5284;50.446;7.904;2023-02-15T05:01:52;349.38;;;28.92;;
10473;SDS011;5284;50.446;7.904;2023-02-15T05:06:56;314.95;;;24.27;;
10473;SDS011;5284;50.446;7.904;2023-02-15T05:11:59;247.07;;;21.80;;
10473;SDS011;5284;50.446;7.904;2023-02-15T05:17:02;424.80;;;26.15;;
10473;SDS011;5284;50.446;7.904;2023-02-15T05:22:07;346.10;;;21.83;;
10473;SDS011;5284;50.446;7.904;2023-02-15T05:27:11;285.80;;;25.02;;
10473;SDS011;5284;50.446;7.904;2023-02-15T05:32:32;307.60;;;21.88;;
10473;SDS011;5284;50.446;7.904;2023-02-15T05:37:36;233.48;;;22.90;;
10473;SDS011;5284;50.446;7.904;2023-02-15T05:42:39;274.58;;;22.35;;
10473;SDS011;5284;50.446;7.904;2023-02-15T05:47:42;151.07;;;21.35;;
10473;SDS011;5284;50.446;7.904;2023-02-15T05:52:46;165.85;;;18.33;;
10473;SDS011;5284;50.446;7.904;2023-02-15T05:57:52;94.82;;;18.70;;
10473;SDS011;5284;50.446;7.904;2023-02-15T06:02:55;220.85;;;19.38;;
10473;SDS011;5284;50.446;7.904;2023-02-15T06:07:59;179.32;;;20.20;;
10473;SDS011;5284;50.446;7.904;2023-02-15T06:13:03;142.88;;;19.70;;
10473;SDS011;5284;50.446;7.904;2023-02-15T06:18:06;318.58;;;21.73;;
10473;SDS011;5284;50.446;7.904;2023-02-15T06:23:11;230.88;;;24.05;;
10473;SDS011;5284;50.446;7.904;2023-02-15T06:28:14;388.58;;;26.13;;
10473;SDS011;5284;50.446;7.904;2023-02-15T06:33:17;165.02;;;21.92;;
10473;SDS011;5284;50.446;7.904;2023-02-15T06:38:21;240.38;;;32.38;;
10473;SDS011;5284;50.446;7.904;2023-02-15T06:43:23;285.60;;;33.08;;
10473;SDS011;5284;50.446;7.904;2023-02-15T06:48:26;255.93;;;24.85;;
10473;SDS011;5284;50.446;7.904;2023-02-15T06:53:31;226.50;;;24.55;;
10473;SDS011;5284;50.446;7.904;2023-02-15T06:58:34;193.52;;;24.33;;
10473;SDS011;5284;50.446;7.904;2023-02-15T07:03:40;189.38;;;22.60;;
10473;SDS011;5284;50.446;7.904;2023-02-15T07:08:45;245.27;;;25.60;;
10473;SDS011;5284;50.446;7.904;2023-02-15T07:13:48;293.30;;;21.88;;
10473;SDS011;5284;50.446;7.904;2023-02-15T07:18:52;367.67;;;42.78;;
10473;SDS011;5284;50.446;7.904;2023-02-15T07:23:57;246.52;;;29.15;;
10473;SDS011;5284;50.446;7.904;2023-02-15T07:29:00;376.70;;;28.73;;
10473;SDS011;5284;50.446;7.904;2023-02-15T07:34:05;322.35;;;30.40;;
10473;SDS011;5284;50.446;7.904;2023-02-15T07:39:11;295.60;;;25.13;;
10473;SDS011;5284;50.446;7.904;2023-02-15T07:44:15;274.20;;;23.65;;
10473;SDS011;5284;50.446;7.904;2023-02-15T07:49:18;245.80;;;24.02;;
10473;SDS011;5284;50.446;7.904;2023-02-15T07:54:22;318.40;;;25.45;;
10473;SDS011;5284;50.446;7.904;2023-02-15T07:59:25;377.08;;;30.50;;
10473;SDS011;5284;50.446;7.904;2023-02-15T08:04:28;472.98;;;31.42;;
10473;SDS011;5284;50.446;7.904;2023-02-15T08:09:34;396.60;;;27.33;;
10473;SDS011;5284;50.446;7.904;2023-02-15T08:14:36;352.38;;;27.33;;
10473;SDS011;5284;50.446;7.904;2023-02-15T08:19:39;151.60;;;26.50;;
10473;SDS011;5284;50.446;7.904;2023-02-15T08:24:44;210.82;;;30.67;;
10473;SDS011;5284;50.446;7.904;2023-02-15T08:29:48;110.65;;;26.55;;
10473;SDS011;5284;50.446;7.904;2023-02-15T08:34:52;68.40;;;23.20;;
10473;SDS011;5284;50.446;7.904;2023-02-15T08:39:56;98.05;;;21.75;;
10473;SDS011;5284;50.446;7.904;2023-02-15T08:44:59;87.80;;;25.27;;
10473;SDS011;5284;50.446;7.904;2023-02-15T08:50:04;130.43;;;33.28;;
10473;SDS011;5284;50.446;7.904;2023-02-15T08:55:09;86.18;;;22.95;;
10473;SDS011;5284;50.446;7.904;2023-02-15T09:00:12;87.32;;;30.88;;
10473;SDS011;5284;50.446;7.904;2023-02-15T09:05:16;116.50;;;27.67;;
10473;SDS011;5284;50.446;7.904;2023-02-15T09:10:20;111.50;;;25.10;;
10473;SDS011;5284;50.446;7.904;2023-02-15T09:15:23;96.45;;;25.50;;
10473;SDS011;5284;50.446;7.904;2023-02-15T09:20:25;139.75;;;30.45;;
10473;SDS011;5284;50.446;7.904;2023-02-15T09:25:30;177.30;;;27.33;;
10473;SDS011;5284;50.446;7.904;2023-02-15T09:30:34;121.63;;;27.17;;
10473;SDS011;5284;50.446;7.904;2023-02-15T09:35:37;123.78;;;29.10;;
10473;SDS011;5284;50.446;7.904;2023-02-15T09:40:46;66.80;;;25.05;;
10473;SDS011;5284;50.446;7.904;2023-02-15T09:46:01;69.65;;;25.80;;
10473;SDS011;5284;50.446;7.904;2023-02-15T09:57:04;75.60;;;26.67;;
10473;SDS011;5284;50.446;7.904;2023-02-15T10:02:18;69.57;;;26.13;;
10473;SDS011;5284;50.446;7.904;2023-02-15T10:07:42;74.70;;;27.23;;
10473;SDS011;5284;50.446;7.904;2023-02-15T10:18:18;70.18;;;25.27;;
10473;SDS011;5284;50.446;7.904;2023-02-15T10:23:49;81.27;;;30.90;;
10473;SDS011;5284;50.446;7.904;2023-02-15T10:29:06;72.75;;;25.67;;
10473;SDS011;5284;50.446;7.904;2023-02-15T10:34:18;62.10;;;26.13;;
10473;SDS011;5284;50.446;7.904;2023-02-15T10:39:23;61.88;;;26.25;;
10473;SDS011;5284;50.446;7.904;2023-02-15T10:44:36;61.90;;;24.52;;
10473;SDS011;5284;50.446;7.904;2023-02-15T10:49:53;61.42;;;26.23;;
10473;SDS011;5284;50.446;7.904;2023-02-15T10:55:10;58.85;;;25.23;;
10473;SDS011;5284;50.446;7.904;2023-02-15T11:00:23;69.95;;;27.88;;
10473;SDS011;5284;50.446;7.904;2023-02-15T11:05:35;90.07;;;34.00;;
10473;SDS011;5284;50.446;7.904;2023-02-15T11:10:47;59.38;;;24.27;;
10473;SDS011;5284;50.446;7.904;2023-02-15T11:15:56;59.53;;;21.75;;
10473;SDS011;5284;50.446;7.904;2023-02-15T11:21:05;54.78;;;22.60;;
10473;SDS011;5284;50.446;7.904;2023-02-15T11:26:14;50.95;;;21.50;;
10473;SDS011;5284;50.446;7.904;2023-02-15T11:31:24;52.60;;;21.35;;
10473;SDS011;5284;50.446;7.904;2023-02-15T11:36:31;50.75;;;22.30;;
10473;SDS011;5284;50.446;7.904;2023-02-15T11:41:37;47.22;;;21.55;;
10473;SDS011;5284;50.446;7.904;2023-02-15T11:46:45;48.50;;;19.90;;
10473;SDS011;5284;50.446;7.904;2023-02-15T11:51:48;42.40;;;19.83;;
10473;SDS011;5284;50.446;7.904;2023-02-15T11:56:52;42.88;;;19.65;;
10473;SDS011;5284;50.446;7.904;2023-02-15T12:01:57;50.47;;;24.35;;
10473;SDS011;5284;50.446;7.904;2023-02-15T12:07:01;47.25;;;21.73;;
10473;SDS011;5284;50.446;7.904;2023-02-15T12:12:23;52.53;;;24.40;;
10473;SDS011;5284;50.446;7.904;2023-02-15T12:17:29;37.33;;;17.42;;
10473;SDS011;5284;50.446;7.904;2023-02-15T12:22:36;39.88;;;19.45;;
10473;SDS011;5284;50.446;7.904;2023-02-15T12:27:39;41.05;;;18.45;;
10473;SDS011;5284;50.446;7.904;2023-02-15T12:32:48;39.78;;;17.58;;
10473;SDS011;5284;50.446;7.904;2023-02-15T12:37:54;34.85;;;16.58;;
10473;SDS011;5284;50.446;7.904;2023-02-15T12:42:59;32.97;;;17.08;;
10473;SDS011;5284;50.446;7.904;2023-02-15T12:48:13;33.47;;;16.42;;
10473;SDS011;5284;50.446;7.904;2023-02-15T12:53:18;36.70;;;18.67;;
10473;SDS011;5284;50.446;7.904;2023-02-15T12:58:25;39.50;;;18.63;;
10473;SDS011;5284;50.446;7.904;2023-02-15T13:03:31;41.13;;;20.90;;
10473;SDS011;5284;50.446;7.904;2023-02-15T13:08:45;42.72;;;21.70;;
10473;SDS011;5284;50.446;7.904;2023-02-15T13:13:54;40.90;;;20.50;;
10473;SDS011;5284;50.446;7.904;2023-02-15T13:19:02;37.75;;;19.95;;
10473;SDS011;5284;50.446;7.904;2023-02-15T13:24:13;42.63;;;20.38;;
10473;SDS011;5284;50.446;7.904;2023-02-15T13:29:21;44.40;;;20.20;;
10473;SDS011;5284;50.446;7.904;2023-02-15T13:34:30;45.17;;;18.92;;
10473;SDS011;5284;50.446;7.904;2023-02-15T13:39:36;34.20;;;18.20;;
10473;SDS011;5284;50.446;7.904;2023-02-15T13:44:52;40.50;;;19.83;;
10473;SDS011;5284;50.446;7.904;2023-02-15T13:50:18;30.02;;;15.10;;
10473;SDS011;5284;50.446;7.904;2023-02-15T13:55:35;35.60;;;15.93;;
10473;SDS011;5284;50.446;7.904;2023-02-15T14:00:44;42.38;;;17.90;;
10473;SDS011;5284;50.446;7.904;2023-02-15T14:05:59;39.00;;;17.52;;
10473;SDS011;5284;50.446;7.904;2023-02-15T14:16:20;48.25;;;24.70;;
10473;SDS011;5284;50.446;7.904;2023-02-15T14:21:37;41.70;;;19.27;;
10473;SDS011;5284;50.446;7.904;2023-02-15T14:26:47;39.83;;;20.08;;
10473;SDS011;5284;50.446;7.904;2023-02-15T14:31:57;41.03;;;19.75;;
10473;SDS011;5284;50.446;7.904;2023-02-15T14:37:05;42.03;;;19.83;;
10473;SDS011;5284;50.446;7.904;2023-02-15T14:42:09;40.58;;;19.23;;
10473;SDS011;5284;50.446;7.904;2023-02-15T14:47:19;58.17;;;22.42;;
10473;SDS011;5284;50.446;7.904;2023-02-15T14:52:29;54.15;;;22.45;;
10473;SDS011;5284;50.446;7.904;2023-02-15T14:57:33;47.15;;;20.75;;
10473;SDS011;5284;50.446;7.904;2023-02-15T15:02:41;75.03;;;34.13;;
10473;SDS011;5284;50.446;7.904;2023-02-15T15:07:52;50.70;;;20.80;;
10473;SDS011;5284;50.446;7.904;2023-02-15T15:12:56;85.28;;;32.15;;
10473;SDS011;5284;50.446;7.904;2023-02-15T15:18:00;60.58;;;25.75;;
10473;SDS011;5284;50.446;7.904;2023-02-15T15:28:53;51.22;;;23.77;;
10473;SDS011;5284;50.446;7.904;2023-02-15T15:34:20;51.95;;;22.10;;
10473;SDS011;5284;50.446;7.904;2023-02-15T15:45:42;51.38;;;23.80;;
10473;SDS011;5284;50.446;7.904;2023-02-15T15:50:57;48.65;;;22.90;;
10473;SDS011;5284;50.446;7.904;2023-02-15T15:56:03;54.08;;;24.30;;
10473;SDS011;5284;50.446;7.904;2023-02-15T16:01:10;49.95;;;22.20;;
10473;SDS011;5284;50.446;7.904;2023-02-15T16:06:25;50.65;;;22.88;;
10473;SDS011;5284;50.446;7.904;2023-02-15T16:11:31;55.40;;;23.77;;
10473;SDS011;5284;50.446;7.904;2023-02-15T16:16:35;61.97;;;24.50;;
10473;SDS011;5284;50.446;7.904;2023-02-15T16:21:38;64.35;;;25.85;;
10473;SDS011;5284;50.446;7.904;2023-02-15T16:26:48;60.67;;;25.85;;
10473;SDS011;5284;50.446;7.904;2023-02-15T16:32:15;56.80;;;25.98;;
10473;SDS011;5284;50.446;7.904;2023-02-15T16:37:21;53.20;;;23.60;;
10473;SDS011;5284;50.446;7.904;2023-02-15T16:42:27;60.88;;;25.25;;
10473;SDS011;5284;50.446;7.904;2023-02-15T16:47:32;56.20;;;24.00;;
10473;SDS011;5284;50.446;7.904;2023-02-15T16:52:38;57.13;;;23.52;;
10473;SDS011;5284;50.446;7.904;2023-02-15T16:57:46;65.22;;;24.73;;
10473;SDS011;5284;50.446;7.904;2023-02-15T17:02:54;62.78;;;26.55;;
10473;SDS011;5284;50.446;7.904;2023-02-15T17:08:05;68.88;;;26.73;;
10473;SDS011;5284;50.446;7.904;2023-02-15T17:13:16;107.85;;;34.78;;
10473;SDS011;5284;50.446;7.904;2023-02-15T17:18:21;91.65;;;33.90;;
10473;SDS011;5284;50.446;7.904;2023-02-15T17:23:26;74.90;;;31.55;;
10473;SDS011;5284;50.446;7.904;2023-02-15T17:28:32;67.38;;;28.00;;
10473;SDS011;5284;50.446;7.904;2023-02-15T17:33:37;83.97;;;29.17;;
10473;SDS011;5284;50.446;7.904;2023-02-15T17:38:58;77.25;;;29.95;;
10473;SDS011;5284;50.446;7.904;2023-02-15T17:44:03;86.53;;;32.92;;
10473;SDS011;5284;50.446;7.904;2023-02-15T17:49:12;75.80;;;29.88;;
10473;SDS011;5284;50.446;7.904;2023-02-15T17:54:20;93.28;;;35.15;;
10473;SDS011;5284;50.446;7.904;2023-02-15T17:59:41;90.43;;;32.83;;
10473;SDS011;5284;50.446;7.904;2023-02-15T18:05:13;99.38;;;37.47;;
10473;SDS011;5284;50.446;7.904;2023-02-15T18:10:36;86.43;;;32.20;;
10473;SDS011;5284;50.446;7.904;2023-02-15T18:15:56;91.05;;;33.70;;
10473;SDS011;5284;50.446;7.904;2023-02-15T18:21:00;114.47;;;42.97;;
10473;SDS011;5284;50.446;7.904;2023-02-15T18:26:04;115.40;;;44.30;;
10473;SDS011;5284;50.446;7.904;2023-02-15T18:31:07;105.50;;;41.25;;
10473;SDS011;5284;50.446;7.904;2023-02-15T18:36:13;98.80;;;36.33;;
10473;SDS011;5284;50.446;7.904;2023-02-15T18:41:22;89.40;;;35.25;;
10473;SDS011;5284;50.446;7.904;2023-02-15T18:46:26;89.35;;;37.15;;
10473;SDS011;5284;50.446;7.904;2023-02-15T18:51:30;92.70;;;34.35;;
10473;SDS011;5284;50.446;7.904;2023-02-15T18:56:35;80.70;;;33.10;;
10473;SDS011;5284;50.446;7.904;2023-02-15T19:01:38;89.80;;;35.73;;
10473;SDS011;5284;50.446;7.904;2023-02-15T19:06:44;83.05;;;33.65;;
10473;SDS011;5284;50.446;7.904;2023-02-15T19:11:50;86.97;;;34.08;;
10473;SDS011;5284;50.446;7.904;2023-02-15T19:16:55;78.70;;;31.57;;
10473;SDS011;5284;50.446;7.904;2023-02-15T19:22:00;90.38;;;38.25;;
10473;SDS011;5284;50.446;7.904;2023-02-15T19:27:05;101.95;;;40.75;;
10473;SDS011;5284;50.446;7.904;2023-02-15T19:32:09;90.57;;;34.10;;
10473;SDS011;5284;50.446;7.904;2023-02-15T19:37:18;87.05;;;34.22;;
10473;SDS011;5284;50.446;7.904;2023-02-15T19:42:27;92.30;;;33.85;;
10473;SDS011;5284;50.446;7.904;2023-02-15T19:47:32;75.80;;;29.58;;
10473;SDS011;5284;50.446;7.904;2023-02-15T19:52:37;78.72;;;33.55;;
10473;SDS011;5284;50.446;7.904;2023-02-15T19:57:40;79.22;;;30.17;;
10473;SDS011;5284;50.446;7.904;2023-02-15T20:02:43;79.85;;;31.33;;
10473;SDS011;5284;50.446;7.904;2023-02-15T20:07:48;89.68;;;33.40;;
10473;SDS011;5284;50.446;7.904;2023-02-15T20:12:52;87.85;;;32.75;;
10473;SDS011;5284;50.446;7.904;2023-02-15T20:17:56;80.82;;;31.70;;
10473;SDS011;5284;50.446;7.904;2023-02-15T20:23:01;70.05;;;31.08;;
10473;SDS011;5284;50.446;7.904;2023-02-15T20:28:08;78.43;;;30.83;;
10473;SDS011;5284;50.446;7.904;2023-02-15T20:33:16;80.32;;;31.77;;
10473;SDS011;5284;50.446;7.904;2023-02-15T20:38:22;81.95;;;33.67;;
10473;SDS011;5284;50.446;7.904;2023-02-15T20:43:28;74.63;;;30.02;;
10473;SDS011;5284;50.446;7.904;2023-02-15T20:48:32;82.00;;;32.20;;
10473;SDS011;5284;50.446;7.904;2023-02-15T20:53:36;81.75;;;31.63;;
10473;SDS011;5284;50.446;7.904;2023-02-15T20:58:39;84.63;;;31.27;;
10473;SDS011;5284;50.446;7.904;2023-02-15T21:03:42;89.10;;;33.22;;
10473;SDS011;5284;50.446;7.904;2023-02-15T21:08:46;70.85;;;32.17;;
10473;SDS011;5284;50.446;7.904;2023-02-15T21:13:49;90.15;;;34.30;;
10473;SDS011;5284;50.446;7.904;2023-02-15T21:18:52;87.43;;;34.45;;
10473;SDS011;5284;50.446;7.904;2023-02-15T21:23:57;97.63;;;35.22;;
10473;SDS011;5284;50.446;7.904;2023-02-15T21:28:59;90.95;;;33.67;;
10473;SDS011;5284;50.446;7.904;2023-02-15T21:34:04;98.13;;;38.90;;
10473;SDS011;5284;50.446;7.904;2023-02-15T21:39:12;116.53;;;34.85;;
10473;SDS011;5284;50.446;7.904;2023-02-15T21:44:18;153.35;;;33.70;;
10473;SDS011;5284;50.446;7.904;2023-02-15T21:49:40;179.40;;;35.35;;
10473;SDS011;5284;50.446;7.904;2023-02-15T21:54:44;108.20;;;34.08;;
10473;SDS011;5284;50.446;7.904;2023-02-15T21:59:47;111.65;;;35.53;;
10473;SDS011;5284;50.446;7.904;2023-02-15T22:04:50;121.00;;;31.52;;
10473;SDS011;5284;50.446;7.904;2023-02-15T22:09:54;166.45;;;39.15;;
10473;SDS011;5284;50.446;7.904;2023-02-15T22:14:57;128.05;;;47.67;;
10473;SDS011;5284;50.446;7.904;2023-02-15T22:20:00;114.38;;;35.35;;
10473;SDS011;5284;50.446;7.904;2023-02-15T22:25:05;138.85;;;32.38;;
10473;SDS011;5284;50.446;7.904;2023-02-15T22:30:14;135.82;;;30.55;;
10473;SDS011;5284;50.446;7.904;2023-02-15T22:35:22;155.75;;;31.80;;
10473;SDS011;5284;50.446;7.904;2023-02-15T22:40:29;340.97;;;37.80;;
10473;SDS011;5284;50.446;7.904;2023-02-15T22:45:34;347.88;;;35.08;;
10473;SDS011;5284;50.446;7.904;2023-02-15T22:50:37;156.88;;;33.90;;
10473;SDS011;5284;50.446;7.904;2023-02-15T22:55:41;242.27;;;34.08;;
10473;SDS011;5284;50.446;7.904;2023-02-15T23:00:44;227.00;;;42.78;;
10473;SDS011;5284;50.446;7.904;2023-02-15T23:05:47;227.68;;;39.47;;
10473;SDS011;5284;50.446;7.904;2023-02-15T23:10:53;232.90;;;37.55;;
10473;SDS011;5284;50.446;7.904;2023-02-15T23:15:59;179.52;;;35.97;;
10473;SDS011;5284;50.446;7.904;2023-02-15T23:21:08;262.05;;;33.35;;
10473;SDS011;5284;50.446;7.904;2023-02-15T23:26:18;273.77;;;35.65;;
10473;SDS011;5284;50.446;7.904;2023-02-15T23:31:23;340.00;;;35.63;;
10473;SDS011;5284;50.446;7.904;2023-02-15T23:36:29;235.30;;;37.40;;
10473;SDS011;5284;50.446;7.904;2023-02-15T23:41:35;348.88;;;34.50;;
10473;SDS011;5284;50.446;7.904;2023-02-15T23:46:38;321.75;;;38.10;;
10473;SDS011;5284;50.446;7.904;2023-02-15T23:51:43;220.35;;;33.60;;
10473;SDS011;5284;50.446;7.904;2023-02-15T23:56:49;386.23;;;37.15;;
